sensor_id;sensor_type;location;lat;lon;timestamp;pressure;altitude;pressure_sealevel;temperature;humidity
26807;BME280;14380;49.910;6.792;2022-08-19T00:00:30;98565.88;;;18.72;100.00
26807;BME280;14380;49.910;6.792;2022-08-19T00:02:57;98567.41;;;18.94;100.00
26807;BME280;14380;49.910;6.792;2022-08-19T00:05:23;98565.19;;;18.99;100.00
26807;BME280;14380;49.910;6.792;2022-08-19T00:07:50;98572.19;;;19.20;100.00
26807;BME280;14380;49.910;6.792;2022-08-19T00:10:17;98571.88;;;19.23;100.00
26807;BME280;14380;49.910;6.792;2022-08-19T00:12:45;98573.03;;;19.11;100.00
26807;BME280;14380;49.910;6.792;2022-08-19T00:15:16;98579.22;;;19.11;100.00
26807;BME280;14380;49.910;6.792;2022-08-19T00:17:44;98584.59;;;18.92;100.00
26807;BME280;14380;49.910;6.792;2022-08-19T00:20:14;98584.75;;;18.70;100.00
26807;BME280;14380;49.910;6.792;2022-08-19T00:22:42;98586.31;;;18.53;100.00
26807;BME280;14380;49.910;6.792;2022-08-19T00:25:09;98583.78;;;18.71;100.00
26807;BME280;14380;49.910;6.792;2022-08-19T00:27:36;98584.19;;;18.67;100.00
26807;BME280;14380;49.910;6.792;2022-08-19T00:30:05;98579.81;;;18.85;100.00
26807;BME280;14380;49.910;6.792;2022-08-19T00:32:33;98573.59;;;18.85;100.00
26807;BME280;14380;49.910;6.792;2022-08-19T00:35:00;98571.50;;;18.79;100.00
26807;BME280;14380;49.910;6.792;2022-08-19T00:37:27;98560.09;;;18.96;100.00
26807;BME280;14380;49.910;6.792;2022-08-19T00:39:54;98563.06;;;18.83;100.00
26807;BME280;14380;49.910;6.792;2022-08-19T00:42:22;98566.41;;;18.95;100.00
26807;BME280;14380;49.910;6.792;2022-08-19T00:44:49;98564.47;;;18.97;100.00
26807;BME280;14380;49.910;6.792;2022-08-19T00:47:16;98561.22;;;19.04;100.00
26807;BME280;14380;49.910;6.792;2022-08-19T00:49:47;98563.91;;;18.94;100.00
26807;BME280;14380;49.910;6.792;2022-08-19T00:52:19;98568.53;;;18.92;100.00
26807;BME280;14380;49.910;6.792;2022-08-19T00:54:47;98563.03;;;19.03;100.00
26807;BME280;14380;49.910;6.792;2022-08-19T00:57:17;98554.75;;;18.96;100.00
26807;BME280;14380;49.910;6.792;2022-08-19T00:59:47;98561.50;;;18.91;100.00
26807;BME280;14380;49.910;6.792;2022-08-19T01:02:17;98555.44;;;18.88;100.00
26807;BME280;14380;49.910;6.792;2022-08-19T01:04:46;98546.84;;;18.95;100.00
26807;BME280;14380;49.910;6.792;2022-08-19T01:07:13;98563.31;;;18.90;100.00
26807;BME280;14380;49.910;6.792;2022-08-19T01:09:39;98561.38;;;18.82;100.00
26807;BME280;14380;49.910;6.792;2022-08-19T01:12:06;98564.03;;;18.82;100.00
26807;BME280;14380;49.910;6.792;2022-08-19T01:14:34;98572.91;;;18.73;100.00
26807;BME280;14380;49.910;6.792;2022-08-19T01:17:01;98569.41;;;18.72;100.00
26807;BME280;14380;49.910;6.792;2022-08-19T01:19:30;98570.38;;;18.81;100.00
26807;BME280;14380;49.910;6.792;2022-08-19T01:22:03;98569.81;;;18.68;100.00
26807;BME280;14380;49.910;6.792;2022-08-19T01:24:33;98561.94;;;18.66;100.00
26807;BME280;14380;49.910;6.792;2022-08-19T01:27:03;98564.06;;;18.53;100.00
26807;BME280;14380;49.910;6.792;2022-08-19T01:29:30;98560.81;;;18.30;100.00
26807;BME280;14380;49.910;6.792;2022-08-19T01:31:57;98559.94;;;18.19;100.00
26807;BME280;14380;49.910;6.792;2022-08-19T01:34:25;98552.69;;;17.90;100.00
26807;BME280;14380;49.910;6.792;2022-08-19T01:36:52;98560.56;;;17.92;100.00
26807;BME280;14380;49.910;6.792;2022-08-19T01:39:24;98558.13;;;17.69;100.00
26807;BME280;14380;49.910;6.792;2022-08-19T01:41:52;98556.34;;;17.79;100.00
26807;BME280;14380;49.910;6.792;2022-08-19T01:44:20;98554.81;;;17.87;100.00
26807;BME280;14380;49.910;6.792;2022-08-19T01:46:50;98553.19;;;18.05;100.00
26807;BME280;14380;49.910;6.792;2022-08-19T01:49:18;98559.50;;;18.14;100.00
26807;BME280;14380;49.910;6.792;2022-08-19T01:51:46;98562.91;;;18.16;100.00
26807;BME280;14380;49.910;6.792;2022-08-19T01:54:16;98559.97;;;18.29;100.00
26807;BME280;14380;49.910;6.792;2022-08-19T01:56:43;98551.53;;;18.34;100.00
26807;BME280;14380;49.910;6.792;2022-08-19T01:59:13;98554.06;;;18.16;100.00
26807;BME280;14380;49.910;6.792;2022-08-19T02:01:41;98549.13;;;18.21;100.00
26807;BME280;14380;49.910;6.792;2022-08-19T02:04:07;98544.06;;;18.18;100.00
26807;BME280;14380;49.910;6.792;2022-08-19T02:06:34;98545.63;;;18.30;100.00
26807;BME280;14380;49.910;6.792;2022-08-19T02:09:02;98542.81;;;18.22;100.00
26807;BME280;14380;49.910;6.792;2022-08-19T02:11:32;98553.19;;;18.15;100.00
26807;BME280;14380;49.910;6.792;2022-08-19T02:14:01;98546.59;;;18.19;100.00
26807;BME280;14380;49.910;6.792;2022-08-19T02:16:30;98553.78;;;18.19;100.00
26807;BME280;14380;49.910;6.792;2022-08-19T02:18:57;98555.84;;;18.15;100.00
26807;BME280;14380;49.910;6.792;2022-08-19T02:21:26;98556.28;;;18.20;100.00
26807;BME280;14380;49.910;6.792;2022-08-19T02:23:53;98556.28;;;18.10;100.00
26807;BME280;14380;49.910;6.792;2022-08-19T02:26:20;98560.53;;;18.23;100.00
26807;BME280;14380;49.910;6.792;2022-08-19T02:28:47;98561.47;;;18.02;100.00
26807;BME280;14380;49.910;6.792;2022-08-19T02:31:17;98556.72;;;18.16;100.00
26807;BME280;14380;49.910;6.792;2022-08-19T02:33:46;98562.34;;;18.12;100.00
26807;BME280;14380;49.910;6.792;2022-08-19T02:36:15;98565.72;;;18.15;100.00
26807;BME280;14380;49.910;6.792;2022-08-19T02:38:43;98573.75;;;18.15;100.00
26807;BME280;14380;49.910;6.792;2022-08-19T02:41:14;98574.16;;;18.20;100.00
26807;BME280;14380;49.910;6.792;2022-08-19T02:43:41;98576.41;;;17.74;100.00
26807;BME280;14380;49.910;6.792;2022-08-19T02:46:13;98573.13;;;17.60;100.00
26807;BME280;14380;49.910;6.792;2022-08-19T02:48:39;98573.34;;;17.78;100.00
26807;BME280;14380;49.910;6.792;2022-08-19T02:51:08;98577.16;;;17.86;100.00
26807;BME280;14380;49.910;6.792;2022-08-19T02:53:34;98575.03;;;17.79;100.00
26807;BME280;14380;49.910;6.792;2022-08-19T02:56:06;98576.75;;;17.90;100.00
26807;BME280;14380;49.910;6.792;2022-08-19T02:58:32;98578.97;;;17.85;100.00
26807;BME280;14380;49.910;6.792;2022-08-19T03:00:59;98579.53;;;17.89;100.00
26807;BME280;14380;49.910;6.792;2022-08-19T03:03:26;98580.63;;;17.76;100.00
26807;BME280;14380;49.910;6.792;2022-08-19T03:06:04;98588.94;;;17.83;100.00
26807;BME280;14380;49.910;6.792;2022-08-19T03:08:32;98586.53;;;17.80;100.00
26807;BME280;14380;49.910;6.792;2022-08-19T03:10:58;98585.44;;;17.82;100.00
26807;BME280;14380;49.910;6.792;2022-08-19T03:13:25;98588.25;;;17.91;100.00
26807;BME280;14380;49.910;6.792;2022-08-19T03:15:53;98589.81;;;17.83;100.00
26807;BME280;14380;49.910;6.792;2022-08-19T03:18:20;98592.03;;;17.78;100.00
26807;BME280;14380;49.910;6.792;2022-08-19T03:20:49;98582.97;;;17.69;100.00
26807;BME280;14380;49.910;6.792;2022-08-19T03:23:17;98586.38;;;17.72;100.00
26807;BME280;14380;49.910;6.792;2022-08-19T03:25:47;98580.19;;;17.71;100.00
26807;BME280;14380;49.910;6.792;2022-08-19T03:28:15;98591.75;;;17.81;100.00
26807;BME280;14380;49.910;6.792;2022-08-19T03:30:53;98591.06;;;17.89;100.00
26807;BME280;14380;49.910;6.792;2022-08-19T03:33:22;98594.34;;;17.62;100.00
26807;BME280;14380;49.910;6.792;2022-08-19T03:35:59;98598.19;;;17.79;100.00
26807;BME280;14380;49.910;6.792;2022-08-19T03:38:26;98600.09;;;17.57;100.00
26807;BME280;14380;49.910;6.792;2022-08-19T03:40:54;98603.88;;;17.54;100.00
26807;BME280;14380;49.910;6.792;2022-08-19T03:43:21;98604.75;;;17.65;100.00
26807;BME280;14380;49.910;6.792;2022-08-19T03:45:47;98593.19;;;17.54;100.00
26807;BME280;14380;49.910;6.792;2022-08-19T03:48:16;98604.59;;;16.93;100.00
26807;BME280;14380;49.910;6.792;2022-08-19T03:50:43;98604.56;;;17.04;100.00
26807;BME280;14380;49.910;6.792;2022-08-19T03:53:09;98605.72;;;16.90;100.00
26807;BME280;14380;49.910;6.792;2022-08-19T03:55:40;98607.25;;;17.04;100.00
26807;BME280;14380;49.910;6.792;2022-08-19T03:58:08;98596.31;;;17.29;100.00
26807;BME280;14380;49.910;6.792;2022-08-19T04:00:36;98597.22;;;17.18;100.00
26807;BME280;14380;49.910;6.792;2022-08-19T04:03:02;98598.00;;;17.30;100.00
26807;BME280;14380;49.910;6.792;2022-08-19T04:05:29;98587.50;;;17.38;100.00
26807;BME280;14380;49.910;6.792;2022-08-19T04:07:56;98593.56;;;17.40;100.00
26807;BME280;14380;49.910;6.792;2022-08-19T04:10:24;98590.97;;;17.60;100.00
26807;BME280;14380;49.910;6.792;2022-08-19T04:12:50;98611.16;;;17.52;100.00
26807;BME280;14380;49.910;6.792;2022-08-19T04:15:18;98610.72;;;17.47;100.00
26807;BME280;14380;49.910;6.792;2022-08-19T04:17:46;98609.16;;;17.45;100.00
26807;BME280;14380;49.910;6.792;2022-08-19T04:20:12;98623.50;;;17.44;100.00
26807;BME280;14380;49.910;6.792;2022-08-19T04:22:39;98619.09;;;17.33;100.00
26807;BME280;14380;49.910;6.792;2022-08-19T04:25:06;98607.03;;;17.38;100.00
26807;BME280;14380;49.910;6.792;2022-08-19T04:27:33;98621.03;;;17.31;100.00
26807;BME280;14380;49.910;6.792;2022-08-19T04:30:00;98622.19;;;17.38;100.00
26807;BME280;14380;49.910;6.792;2022-08-19T04:32:28;98615.63;;;17.42;100.00
26807;BME280;14380;49.910;6.792;2022-08-19T04:34:57;98611.34;;;17.30;100.00
26807;BME280;14380;49.910;6.792;2022-08-19T04:37:24;98612.34;;;17.38;100.00
26807;BME280;14380;49.910;6.792;2022-08-19T04:39:51;98609.31;;;17.43;100.00
26807;BME280;14380;49.910;6.792;2022-08-19T04:42:36;98615.06;;;17.48;100.00
26807;BME280;14380;49.910;6.792;2022-08-19T04:45:06;98622.72;;;17.32;100.00
26807;BME280;14380;49.910;6.792;2022-08-19T04:47:36;98629.25;;;17.18;100.00
26807;BME280;14380;49.910;6.792;2022-08-19T04:50:04;98624.53;;;17.10;100.00
26807;BME280;14380;49.910;6.792;2022-08-19T04:52:31;98616.63;;;17.20;100.00
26807;BME280;14380;49.910;6.792;2022-08-19T04:54:58;98622.38;;;17.25;100.00
26807;BME280;14380;49.910;6.792;2022-08-19T04:57:25;98625.25;;;17.12;100.00
26807;BME280;14380;49.910;6.792;2022-08-19T04:59:54;98621.41;;;17.26;100.00
26807;BME280;14380;49.910;6.792;2022-08-19T05:02:21;98630.53;;;17.02;100.00
26807;BME280;14380;49.910;6.792;2022-08-19T05:04:49;98622.22;;;17.17;100.00
26807;BME280;14380;49.910;6.792;2022-08-19T05:07:16;98614.91;;;17.40;100.00
26807;BME280;14380;49.910;6.792;2022-08-19T05:09:43;98611.75;;;17.56;100.00
26807;BME280;14380;49.910;6.792;2022-08-19T05:12:09;98614.88;;;17.61;100.00
26807;BME280;14380;49.910;6.792;2022-08-19T05:14:36;98611.00;;;17.75;100.00
26807;BME280;14380;49.910;6.792;2022-08-19T05:17:03;98606.22;;;17.79;100.00
26807;BME280;14380;49.910;6.792;2022-08-19T05:19:30;98609.00;;;18.08;100.00
26807;BME280;14380;49.910;6.792;2022-08-19T05:22:15;98607.66;;;18.43;100.00
26807;BME280;14380;49.910;6.792;2022-08-19T05:25:04;98618.38;;;18.83;100.00
26807;BME280;14380;49.910;6.792;2022-08-19T05:27:33;98622.63;;;19.05;100.00
26807;BME280;14380;49.910;6.792;2022-08-19T05:30:00;98617.13;;;19.16;100.00
26807;BME280;14380;49.910;6.792;2022-08-19T05:32:27;98618.69;;;18.99;100.00
26807;BME280;14380;49.910;6.792;2022-08-19T05:34:54;98618.94;;;19.26;100.00
26807;BME280;14380;49.910;6.792;2022-08-19T05:37:22;98612.50;;;19.09;100.00
26807;BME280;14380;49.910;6.792;2022-08-19T05:39:52;98617.78;;;19.28;100.00
26807;BME280;14380;49.910;6.792;2022-08-19T05:42:20;98624.81;;;19.87;100.00
26807;BME280;14380;49.910;6.792;2022-08-19T05:44:48;98620.84;;;19.91;100.00
26807;BME280;14380;49.910;6.792;2022-08-19T05:47:16;98624.75;;;20.25;100.00
26807;BME280;14380;49.910;6.792;2022-08-19T05:49:44;98625.66;;;20.43;100.00
26807;BME280;14380;49.910;6.792;2022-08-19T05:52:14;98623.66;;;20.63;100.00
26807;BME280;14380;49.910;6.792;2022-08-19T05:54:43;98621.53;;;20.85;100.00
26807;BME280;14380;49.910;6.792;2022-08-19T05:57:13;98630.25;;;20.69;100.00
26807;BME280;14380;49.910;6.792;2022-08-19T05:59:40;98625.16;;;20.94;100.00
26807;BME280;14380;49.910;6.792;2022-08-19T06:02:07;98627.72;;;21.04;100.00
26807;BME280;14380;49.910;6.792;2022-08-19T06:04:34;98644.59;;;21.14;100.00
26807;BME280;14380;49.910;6.792;2022-08-19T06:07:01;98643.59;;;21.42;100.00
26807;BME280;14380;49.910;6.792;2022-08-19T06:09:28;98650.38;;;21.28;100.00
26807;BME280;14380;49.910;6.792;2022-08-19T06:11:58;98651.19;;;21.46;100.00
26807;BME280;14380;49.910;6.792;2022-08-19T06:14:27;98652.34;;;21.17;100.00
26807;BME280;14380;49.910;6.792;2022-08-19T06:16:54;98649.72;;;21.52;99.69
26807;BME280;14380;49.910;6.792;2022-08-19T06:19:22;98648.34;;;21.48;100.00
26807;BME280;14380;49.910;6.792;2022-08-19T06:21:51;98643.34;;;21.53;98.41
26807;BME280;14380;49.910;6.792;2022-08-19T06:24:21;98647.84;;;21.71;97.54
26807;BME280;14380;49.910;6.792;2022-08-19T06:26:50;98657.34;;;21.83;96.38
26807;BME280;14380;49.910;6.792;2022-08-19T06:29:21;98659.44;;;22.06;94.67
26807;BME280;14380;49.910;6.792;2022-08-19T06:31:51;98663.44;;;21.67;95.51
26807;BME280;14380;49.910;6.792;2022-08-19T06:34:19;98663.94;;;21.62;96.78
26807;BME280;14380;49.910;6.792;2022-08-19T06:36:47;98655.22;;;21.95;95.90
26807;BME280;14380;49.910;6.792;2022-08-19T06:39:16;98645.72;;;22.17;95.06
26807;BME280;14380;49.910;6.792;2022-08-19T06:41:46;98653.16;;;22.32;94.72
26807;BME280;14380;49.910;6.792;2022-08-19T06:44:14;98650.38;;;22.58;94.04
26807;BME280;14380;49.910;6.792;2022-08-19T06:46:43;98649.44;;;23.00;92.86
26807;BME280;14380;49.910;6.792;2022-08-19T06:49:10;98657.38;;;23.10;91.28
26807;BME280;14380;49.910;6.792;2022-08-19T06:51:40;98659.03;;;23.53;91.93
26807;BME280;14380;49.910;6.792;2022-08-19T06:54:07;98670.66;;;23.53;91.02
26807;BME280;14380;49.910;6.792;2022-08-19T06:56:34;98675.34;;;23.59;91.26
26807;BME280;14380;49.910;6.792;2022-08-19T06:59:02;98679.03;;;23.83;90.45
26807;BME280;14380;49.910;6.792;2022-08-19T07:01:28;98683.56;;;23.99;90.66
26807;BME280;14380;49.910;6.792;2022-08-19T07:03:56;98689.16;;;24.38;87.46
26807;BME280;14380;49.910;6.792;2022-08-19T07:06:23;98691.38;;;24.57;83.39
26807;BME280;14380;49.910;6.792;2022-08-19T07:08:50;98688.84;;;24.64;81.05
26807;BME280;14380;49.910;6.792;2022-08-19T07:11:17;98691.75;;;24.54;84.80
26807;BME280;14380;49.910;6.792;2022-08-19T07:13:46;98690.34;;;24.67;84.74
26807;BME280;14380;49.910;6.792;2022-08-19T07:16:17;98683.56;;;24.71;83.75
26807;BME280;14380;49.910;6.792;2022-08-19T07:18:45;98693.75;;;24.92;82.69
26807;BME280;14380;49.910;6.792;2022-08-19T07:21:15;98687.19;;;25.56;81.49
26807;BME280;14380;49.910;6.792;2022-08-19T07:23:42;98693.06;;;25.36;81.76
26807;BME280;14380;49.910;6.792;2022-08-19T07:26:11;98681.28;;;25.52;81.56
26807;BME280;14380;49.910;6.792;2022-08-19T07:28:38;98683.69;;;25.47;79.65
26807;BME280;14380;49.910;6.792;2022-08-19T07:31:06;98683.19;;;25.05;79.41
26807;BME280;14380;49.910;6.792;2022-08-19T07:33:33;98684.78;;;25.76;78.07
26807;BME280;14380;49.910;6.792;2022-08-19T07:36:03;98687.84;;;25.35;77.11
26807;BME280;14380;49.910;6.792;2022-08-19T07:38:33;98682.91;;;25.62;73.96
26807;BME280;14380;49.910;6.792;2022-08-19T07:41:00;98691.06;;;26.22;74.79
26807;BME280;14380;49.910;6.792;2022-08-19T07:43:28;98686.94;;;25.81;74.43
26807;BME280;14380;49.910;6.792;2022-08-19T07:45:57;98688.66;;;26.27;74.10
26807;BME280;14380;49.910;6.792;2022-08-19T07:48:25;98685.53;;;26.30;73.50
26807;BME280;14380;49.910;6.792;2022-08-19T07:50:53;98686.00;;;25.89;74.02
26807;BME280;14380;49.910;6.792;2022-08-19T07:53:20;98682.66;;;26.02;74.45
26807;BME280;14380;49.910;6.792;2022-08-19T07:55:48;98687.97;;;25.95;74.37
26807;BME280;14380;49.910;6.792;2022-08-19T07:58:18;98692.16;;;25.97;72.35
26807;BME280;14380;49.910;6.792;2022-08-19T08:00:47;98681.31;;;26.42;71.66
26807;BME280;14380;49.910;6.792;2022-08-19T08:03:16;98676.09;;;26.41;69.09
26807;BME280;14380;49.910;6.792;2022-08-19T08:05:43;98679.94;;;26.02;70.27
26807;BME280;14380;49.910;6.792;2022-08-19T08:08:28;98670.78;;;25.58;71.27
26807;BME280;14380;49.910;6.792;2022-08-19T08:11:16;98671.91;;;25.02;70.73
26807;BME280;14380;49.910;6.792;2022-08-19T08:13:44;98665.56;;;26.01;68.93
26807;BME280;14380;49.910;6.792;2022-08-19T08:16:11;98664.91;;;26.66;67.50
26807;BME280;14380;49.910;6.792;2022-08-19T08:18:37;98664.91;;;25.99;68.85
26807;BME280;14380;49.910;6.792;2022-08-19T08:21:07;98669.88;;;25.80;68.98
26807;BME280;14380;49.910;6.792;2022-08-19T08:23:35;98668.66;;;25.98;69.75
26807;BME280;14380;49.910;6.792;2022-08-19T08:26:01;98662.78;;;26.09;69.44
26807;BME280;14380;49.910;6.792;2022-08-19T08:28:31;98680.28;;;25.68;70.43
26807;BME280;14380;49.910;6.792;2022-08-19T08:30:58;98675.09;;;25.97;68.61
26807;BME280;14380;49.910;6.792;2022-08-19T08:33:27;98675.53;;;25.71;69.03
26807;BME280;14380;49.910;6.792;2022-08-19T08:35:55;98671.63;;;26.33;68.51
26807;BME280;14380;49.910;6.792;2022-08-19T08:38:22;98674.59;;;25.63;69.91
26807;BME280;14380;49.910;6.792;2022-08-19T08:40:50;98672.88;;;25.47;69.90
26807;BME280;14380;49.910;6.792;2022-08-19T08:43:23;98674.47;;;26.25;67.76
26807;BME280;14380;49.910;6.792;2022-08-19T08:45:59;98677.03;;;26.33;67.69
26807;BME280;14380;49.910;6.792;2022-08-19T08:48:34;98674.81;;;26.37;69.17
26807;BME280;14380;49.910;6.792;2022-08-19T08:51:04;98680.94;;;25.56;70.86
26807;BME280;14380;49.910;6.792;2022-08-19T08:53:31;98677.22;;;25.72;71.30
26807;BME280;14380;49.910;6.792;2022-08-19T08:56:02;98683.09;;;25.60;70.45
26807;BME280;14380;49.910;6.792;2022-08-19T08:58:36;98672.47;;;25.35;70.55
26807;BME280;14380;49.910;6.792;2022-08-19T09:01:09;98677.63;;;25.98;69.70
26807;BME280;14380;49.910;6.792;2022-08-19T09:03:37;98678.44;;;26.29;69.55
26807;BME280;14380;49.910;6.792;2022-08-19T09:06:12;98676.97;;;25.81;69.10
26807;BME280;14380;49.910;6.792;2022-08-19T09:08:47;98672.53;;;26.40;68.23
26807;BME280;14380;49.910;6.792;2022-08-19T09:11:22;98667.75;;;26.21;66.81
26807;BME280;14380;49.910;6.792;2022-08-19T09:14:02;98660.72;;;26.11;67.42
26807;BME280;14380;49.910;6.792;2022-08-19T09:16:36;98652.56;;;26.78;66.36
26807;BME280;14380;49.910;6.792;2022-08-19T09:19:06;98652.47;;;26.50;66.33
26807;BME280;14380;49.910;6.792;2022-08-19T09:21:34;98652.09;;;27.18;65.52
26807;BME280;14380;49.910;6.792;2022-08-19T09:24:02;98649.91;;;27.85;65.14
26807;BME280;14380;49.910;6.792;2022-08-19T09:26:30;98652.09;;;27.18;63.96
26807;BME280;14380;49.910;6.792;2022-08-19T09:28:57;98644.56;;;27.64;63.57
26807;BME280;14380;49.910;6.792;2022-08-19T09:31:26;98644.09;;;27.53;63.24
26807;BME280;14380;49.910;6.792;2022-08-19T09:33:56;98647.47;;;27.62;62.76
26807;BME280;14380;49.910;6.792;2022-08-19T09:36:24;98643.59;;;27.78;62.50
26807;BME280;14380;49.910;6.792;2022-08-19T09:38:51;98638.25;;;28.33;62.27
26807;BME280;14380;49.910;6.792;2022-08-19T09:41:20;98636.44;;;27.99;61.48
26807;BME280;14380;49.910;6.792;2022-08-19T09:43:49;98637.19;;;28.21;61.44
26807;BME280;14380;49.910;6.792;2022-08-19T09:46:18;98642.47;;;28.43;61.15
26807;BME280;14380;49.910;6.792;2022-08-19T09:48:46;98631.56;;;28.29;61.34
26807;BME280;14380;49.910;6.792;2022-08-19T09:51:17;98630.28;;;28.18;61.83
26807;BME280;14380;49.910;6.792;2022-08-19T09:53:45;98639.34;;;28.53;60.44
26807;BME280;14380;49.910;6.792;2022-08-19T09:56:13;98636.97;;;28.98;59.14
26807;BME280;14380;49.910;6.792;2022-08-19T09:58:40;98640.75;;;29.24;58.73
26807;BME280;14380;49.910;6.792;2022-08-19T10:01:09;98640.06;;;27.78;59.96
26807;BME280;14380;49.910;6.792;2022-08-19T10:03:36;98645.09;;;27.81;62.22
26807;BME280;14380;49.910;6.792;2022-08-19T10:06:04;98648.38;;;28.11;59.51
26807;BME280;14380;49.910;6.792;2022-08-19T10:08:34;98640.94;;;29.02;60.09
26807;BME280;14380;49.910;6.792;2022-08-19T10:11:02;98624.44;;;29.04;58.86
26807;BME280;14380;49.910;6.792;2022-08-19T10:13:30;98618.16;;;28.90;58.22
26807;BME280;14380;49.910;6.792;2022-08-19T10:16:05;98628.91;;;28.49;58.57
26807;BME280;14380;49.910;6.792;2022-08-19T10:18:32;98634.94;;;27.96;59.31
26807;BME280;14380;49.910;6.792;2022-08-19T10:21:04;98633.31;;;28.02;59.00
26807;BME280;14380;49.910;6.792;2022-08-19T10:23:35;98622.31;;;28.99;59.45
26807;BME280;14380;49.910;6.792;2022-08-19T10:26:03;98623.97;;;29.74;58.42
26807;BME280;14380;49.910;6.792;2022-08-19T10:28:31;98622.31;;;29.60;58.12
26807;BME280;14380;49.910;6.792;2022-08-19T10:31:01;98619.63;;;28.92;57.57
26807;BME280;14380;49.910;6.792;2022-08-19T10:33:29;98617.03;;;28.64;57.73
26807;BME280;14380;49.910;6.792;2022-08-19T10:35:59;98610.00;;;29.17;56.82
26807;BME280;14380;49.910;6.792;2022-08-19T10:38:26;98609.56;;;29.27;57.42
26807;BME280;14380;49.910;6.792;2022-08-19T10:40:55;98613.22;;;30.06;56.43
26807;BME280;14380;49.910;6.792;2022-08-19T10:43:22;98605.03;;;30.52;55.53
26807;BME280;14380;49.910;6.792;2022-08-19T10:45:52;98613.31;;;29.66;55.46
26807;BME280;14380;49.910;6.792;2022-08-19T10:48:20;98612.44;;;29.86;56.73
26807;BME280;14380;49.910;6.792;2022-08-19T10:50:46;98615.88;;;30.20;56.36
26807;BME280;14380;49.910;6.792;2022-08-19T10:53:30;98616.81;;;30.00;56.39
26807;BME280;14380;49.910;6.792;2022-08-19T10:55:58;98613.34;;;29.26;57.47
26807;BME280;14380;49.910;6.792;2022-08-19T10:58:42;98622.56;;;29.51;57.33
26807;BME280;14380;49.910;6.792;2022-08-19T11:01:10;98607.19;;;30.43;56.93
26807;BME280;14380;49.910;6.792;2022-08-19T11:03:36;98601.31;;;30.01;57.22
26807;BME280;14380;49.910;6.792;2022-08-19T11:06:05;98600.50;;;29.87;55.86
26807;BME280;14380;49.910;6.792;2022-08-19T11:08:32;98596.31;;;30.36;55.07
26807;BME280;14380;49.910;6.792;2022-08-19T11:11:03;98601.97;;;30.35;55.45
26807;BME280;14380;49.910;6.792;2022-08-19T11:13:31;98586.66;;;30.40;55.89
26807;BME280;14380;49.910;6.792;2022-08-19T11:15:59;98577.00;;;30.45;55.52
26807;BME280;14380;49.910;6.792;2022-08-19T11:18:26;98586.09;;;30.96;55.44
26807;BME280;14380;49.910;6.792;2022-08-19T11:20:53;98592.38;;;30.32;55.31
26807;BME280;14380;49.910;6.792;2022-08-19T11:23:20;98601.81;;;29.57;56.51
26807;BME280;14380;49.910;6.792;2022-08-19T11:25:47;98600.56;;;28.79;58.89
26807;BME280;14380;49.910;6.792;2022-08-19T11:28:15;98600.78;;;29.58;56.01
26807;BME280;14380;49.910;6.792;2022-08-19T11:30:41;98597.88;;;29.26;56.74
26807;BME280;14380;49.910;6.792;2022-08-19T11:33:08;98587.66;;;30.07;55.70
26807;BME280;14380;49.910;6.792;2022-08-19T11:35:38;98576.72;;;30.60;55.03
26807;BME280;14380;49.910;6.792;2022-08-19T11:38:05;98584.06;;;30.59;55.36
26807;BME280;14380;49.910;6.792;2022-08-19T11:40:32;98594.47;;;30.69;54.94
26807;BME280;14380;49.910;6.792;2022-08-19T11:42:59;98605.16;;;29.59;56.10
26807;BME280;14380;49.910;6.792;2022-08-19T11:45:27;98599.75;;;29.05;57.30
26807;BME280;14380;49.910;6.792;2022-08-19T11:47:54;98601.81;;;28.08;58.43
26807;BME280;14380;49.910;6.792;2022-08-19T11:50:22;98610.81;;;28.97;57.29
26807;BME280;14380;49.910;6.792;2022-08-19T11:52:49;98602.22;;;29.61;55.16
26807;BME280;14380;49.910;6.792;2022-08-19T11:55:16;98599.50;;;29.67;55.70
26807;BME280;14380;49.910;6.792;2022-08-19T11:57:44;98597.44;;;30.22;55.24
26807;BME280;14380;49.910;6.792;2022-08-19T12:00:13;98599.97;;;30.23;55.00
26807;BME280;14380;49.910;6.792;2022-08-19T12:02:41;98590.84;;;29.97;55.27
26807;BME280;14380;49.910;6.792;2022-08-19T12:05:09;98608.50;;;29.68;54.62
26807;BME280;14380;49.910;6.792;2022-08-19T12:07:36;98603.03;;;28.74;55.78
26807;BME280;14380;49.910;6.792;2022-08-19T12:10:03;98600.16;;;28.75;56.03
26807;BME280;14380;49.910;6.792;2022-08-19T12:12:30;98597.66;;;29.01;55.57
26807;BME280;14380;49.910;6.792;2022-08-19T12:14:57;98588.97;;;29.98;53.56
26807;BME280;14380;49.910;6.792;2022-08-19T12:17:24;98603.75;;;30.16;52.77
26807;BME280;14380;49.910;6.792;2022-08-19T12:19:54;98594.69;;;29.70;52.64
26807;BME280;14380;49.910;6.792;2022-08-19T12:22:21;98589.88;;;29.65;52.88
26807;BME280;14380;49.910;6.792;2022-08-19T12:24:47;98597.97;;;29.92;51.27
26807;BME280;14380;49.910;6.792;2022-08-19T12:27:16;98591.94;;;30.35;50.65
26807;BME280;14380;49.910;6.792;2022-08-19T12:29:42;98598.25;;;30.29;50.63
26807;BME280;14380;49.910;6.792;2022-08-19T12:32:09;98588.41;;;30.28;51.21
26807;BME280;14380;49.910;6.792;2022-08-19T12:34:36;98584.72;;;30.09;49.15
26807;BME280;14380;49.910;6.792;2022-08-19T12:37:05;98575.53;;;30.42;49.74
26807;BME280;14380;49.910;6.792;2022-08-19T12:39:37;98584.00;;;30.27;49.35
26807;BME280;14380;49.910;6.792;2022-08-19T12:42:05;98579.66;;;30.90;49.67
26807;BME280;14380;49.910;6.792;2022-08-19T12:44:32;98568.28;;;30.93;49.52
26807;BME280;14380;49.910;6.792;2022-08-19T12:46:59;98577.09;;;30.63;50.17
26807;BME280;14380;49.910;6.792;2022-08-19T12:49:27;98582.59;;;29.32;50.55
26807;BME280;14380;49.910;6.792;2022-08-19T12:51:54;98571.59;;;29.99;50.54
26807;BME280;14380;49.910;6.792;2022-08-19T12:54:22;98575.59;;;29.76;50.82
26807;BME280;14380;49.910;6.792;2022-08-19T12:56:49;98571.22;;;30.66;50.37
26807;BME280;14380;49.910;6.792;2022-08-19T12:59:15;98577.84;;;30.77;49.63
26807;BME280;14380;49.910;6.792;2022-08-19T13:01:43;98577.06;;;30.31;50.38